createdAt,value
2023-05-13T00:02:13.110Z,9.55
2023-05-13T00:04:39.838Z,9.48
2023-05-13T00:07:07.114Z,9.43
2023-05-13T00:09:33.880Z,9.42
2023-05-13T00:12:00.603Z,9.32
2023-05-13T00:14:27.334Z,9.31
2023-05-13T00:16:53.981Z,9.23
2023-05-13T00:19:20.732Z,9.19
2023-05-13T00:21:47.432Z,9.12
2023-05-13T00:24:14.080Z,9.04
2023-05-13T00:26:40.704Z,9.02
2023-05-13T00:29:07.581Z,8.99
2023-05-13T00:31:35.029Z,9.00
2023-05-13T00:34:01.799Z,8.91
2023-05-13T00:36:28.843Z,8.88
2023-05-13T00:38:55.685Z,8.80
2023-05-13T00:41:22.645Z,8.77
2023-05-13T00:43:49.418Z,8.79
2023-05-13T00:46:16.206Z,8.70
2023-05-13T00:48:43.429Z,8.71
2023-05-13T00:51:10.389Z,8.71
2023-05-13T00:53:37.618Z,8.80
2023-05-13T00:56:04.581Z,8.84
2023-05-13T00:58:31.317Z,8.88
2023-05-13T01:01:05.059Z,8.99
2023-05-13T01:03:53.940Z,9.03
2023-05-13T01:06:55.975Z,9.09
2023-05-13T01:09:35.278Z,9.15
2023-05-13T01:12:11.093Z,9.24
2023-05-13T01:14:46.190Z,9.25
2023-05-13T01:17:18.822Z,9.29
2023-05-13T01:19:54.993Z,9.26
2023-05-13T01:22:21.935Z,9.35
2023-05-13T01:24:50.466Z,9.32
2023-05-13T01:27:17.574Z,9.34
2023-05-13T01:29:45.686Z,9.22
2023-05-13T01:32:16.085Z,9.23
2023-05-13T01:34:43.502Z,9.21
2023-05-13T01:37:10.174Z,9.22
2023-05-13T01:39:38.364Z,9.16
2023-05-13T01:42:09.287Z,9.20
2023-05-13T01:44:38.606Z,9.21
2023-05-13T01:47:05.471Z,9.22
2023-05-13T01:49:32.077Z,9.17
2023-05-13T01:51:58.914Z,9.19
2023-05-13T01:54:27.698Z,9.16
2023-05-13T01:56:59.500Z,9.14
2023-05-13T01:59:26.351Z,9.14
2023-05-13T02:01:53.311Z,9.08
2023-05-13T02:04:20.181Z,9.03
2023-05-13T02:06:47.607Z,9.01
2023-05-13T02:09:15.020Z,8.92
2023-05-13T02:11:41.675Z,8.90
2023-05-13T02:14:08.423Z,8.86
2023-05-13T02:16:35.272Z,8.86
2023-05-13T02:19:05.837Z,8.83
2023-05-13T02:21:32.786Z,8.82
2023-05-13T02:23:59.393Z,8.78
2023-05-13T02:26:28.639Z,8.80
2023-05-13T02:28:55.440Z,8.83
2023-05-13T02:31:22.263Z,8.87
2023-05-13T02:33:49.110Z,8.87
2023-05-13T02:36:16.040Z,8.84
2023-05-13T02:38:42.809Z,8.81
2023-05-13T02:41:10.723Z,8.75
2023-05-13T02:43:37.672Z,8.81
2023-05-13T02:46:06.231Z,8.74
2023-05-13T02:48:34.053Z,8.65
2023-05-13T02:51:01.668Z,8.64
2023-05-13T02:53:28.539Z,8.62
2023-05-13T02:56:00.215Z,8.55
2023-05-13T02:58:26.929Z,8.52
2023-05-13T03:00:54.557Z,8.55
2023-05-13T03:03:24.316Z,8.58
2023-05-13T03:05:51.101Z,8.61
2023-05-13T03:08:17.768Z,8.57
2023-05-13T03:10:44.501Z,8.53
2023-05-13T03:13:12.370Z,8.57
2023-05-13T03:15:39.031Z,8.56
2023-05-13T03:18:05.948Z,8.62
2023-05-13T03:20:33.173Z,8.65
2023-05-13T03:23:02.685Z,8.68
2023-05-13T03:25:31.393Z,8.66
2023-05-13T03:27:58.828Z,8.59
2023-05-13T03:30:28.744Z,8.61
2023-05-13T03:33:13.191Z,8.73
2023-05-13T03:35:40.815Z,8.77
2023-05-13T03:38:07.890Z,8.84
2023-05-13T03:40:38.092Z,8.90
2023-05-13T03:43:05.979Z,8.95
2023-05-13T03:45:35.626Z,8.95
2023-05-13T03:48:07.185Z,8.97
2023-05-13T03:50:33.966Z,8.95
2023-05-13T03:53:00.629Z,8.96
2023-05-13T03:55:27.367Z,8.87
2023-05-13T03:57:54.432Z,8.88
2023-05-13T04:00:22.999Z,8.91
2023-05-13T04:02:50.233Z,8.94
2023-05-13T04:05:17.773Z,8.94
2023-05-13T04:07:46.384Z,8.94
2023-05-13T04:10:15.439Z,8.95
2023-05-13T04:12:42.510Z,8.93
2023-05-13T04:15:09.459Z,8.99
2023-05-13T04:17:36.234Z,8.95
2023-05-13T04:20:03.012Z,8.95
2023-05-13T04:22:30.659Z,8.98
2023-05-13T04:24:57.333Z,8.99
2023-05-13T04:27:24.644Z,9.01
2023-05-13T04:29:55.916Z,9.05
2023-05-13T04:32:23.063Z,9.13
2023-05-13T04:34:52.900Z,9.16
2023-05-13T04:37:20.272Z,9.26
2023-05-13T04:39:48.588Z,9.26
2023-05-13T04:42:18.072Z,9.22
2023-05-13T04:44:44.741Z,9.19
2023-05-13T04:47:11.604Z,9.24
2023-05-13T04:49:38.419Z,9.33
2023-05-13T04:52:07.005Z,9.36
2023-05-13T04:54:39.334Z,9.39
2023-05-13T04:57:06.883Z,9.52
2023-05-13T04:59:33.607Z,9.53
2023-05-13T05:02:00.504Z,9.59
2023-05-13T05:04:27.816Z,9.59
2023-05-13T05:06:55.407Z,9.76
2023-05-13T05:09:22.107Z,9.87
2023-05-13T05:11:51.207Z,9.98
2023-05-13T05:14:20.728Z,10.06
2023-05-13T05:16:49.446Z,10.28
2023-05-13T05:19:16.231Z,10.54
2023-05-13T05:21:43.134Z,10.70
2023-05-13T05:24:10.893Z,10.69
2023-05-13T05:26:37.733Z,10.69
2023-05-13T05:29:06.145Z,10.60
2023-05-13T05:31:33.250Z,10.54
2023-05-13T05:34:02.027Z,10.56
2023-05-13T05:36:29.361Z,10.51
2023-05-13T05:38:56.112Z,10.61
2023-05-13T05:41:29.502Z,10.74
2023-05-13T05:43:56.742Z,10.83
2023-05-13T05:46:23.489Z,10.92
2023-05-13T05:48:50.756Z,11.00
2023-05-13T05:51:17.447Z,10.91
2023-05-13T05:53:44.292Z,11.06
2023-05-13T05:56:13.161Z,11.19
2023-05-13T05:58:39.849Z,11.29
2023-05-13T06:01:06.536Z,11.52
2023-05-13T06:03:33.425Z,11.68
2023-05-13T06:06:00.506Z,11.87
2023-05-13T06:08:30.233Z,11.99
2023-05-13T06:10:58.269Z,12.21
2023-05-13T06:13:26.216Z,12.28
2023-05-13T06:15:53.031Z,12.53
2023-05-13T06:18:19.860Z,12.66
2023-05-13T06:20:47.216Z,12.84
2023-05-13T06:23:15.001Z,13.12
2023-05-13T06:25:42.010Z,13.16
2023-05-13T06:28:10.821Z,13.03
2023-05-13T06:30:38.049Z,13.15
2023-05-13T06:33:05.177Z,12.94
2023-05-13T06:35:31.934Z,13.17
2023-05-13T06:38:00.573Z,13.08
2023-05-13T06:40:27.681Z,12.75
2023-05-13T06:42:55.442Z,12.41
2023-05-13T06:45:28.896Z,12.25
2023-05-13T06:47:56.436Z,12.26
2023-05-13T06:50:23.466Z,12.23
2023-05-13T06:52:50.348Z,12.17
2023-05-13T06:55:18.784Z,12.33
2023-05-13T06:57:46.881Z,12.32
2023-05-13T07:00:14.775Z,12.39
2023-05-13T07:02:42.056Z,12.53
2023-05-13T07:05:11.385Z,12.75
2023-05-13T07:07:38.705Z,12.91
2023-05-13T07:10:05.653Z,13.36
2023-05-13T07:12:32.688Z,13.58
2023-05-13T07:14:59.380Z,13.77
2023-05-13T07:17:26.121Z,13.87
2023-05-13T07:19:52.981Z,13.97
2023-05-13T07:22:19.663Z,14.03
2023-05-13T07:24:46.287Z,13.99
2023-05-13T07:27:13.055Z,13.87
2023-05-13T07:29:39.670Z,13.78
2023-05-13T07:32:07.020Z,13.80
2023-05-13T07:34:33.674Z,13.86
2023-05-13T07:37:00.369Z,13.75
2023-05-13T07:39:27.863Z,13.65
2023-05-13T07:41:55.000Z,13.66
2023-05-13T07:44:22.117Z,13.73
2023-05-13T07:46:49.405Z,13.55
2023-05-13T07:49:16.208Z,13.93
2023-05-13T07:51:42.986Z,13.93
2023-05-13T07:54:10.208Z,14.27
2023-05-13T07:56:38.169Z,14.57
2023-05-13T07:59:05.015Z,14.76
2023-05-13T08:01:31.896Z,15.02
2023-05-13T08:03:58.800Z,15.05
2023-05-13T08:06:25.722Z,15.43
2023-05-13T08:08:52.351Z,15.78
2023-05-13T08:11:19.155Z,16.10
2023-05-13T08:13:45.758Z,16.26
2023-05-13T08:16:12.493Z,16.34
2023-05-13T08:18:39.324Z,16.70
2023-05-13T08:21:06.053Z,17.07
2023-05-13T08:23:44.295Z,17.22
2023-05-13T08:26:12.415Z,16.86
2023-05-13T08:28:39.090Z,17.07
2023-05-13T08:31:05.870Z,17.26
2023-05-13T08:33:32.624Z,17.40
2023-05-13T08:36:00.783Z,17.32
2023-05-13T08:38:27.390Z,16.92
2023-05-13T08:40:54.195Z,16.95
2023-05-13T08:43:24.025Z,16.95
2023-05-13T08:45:53.477Z,17.05
2023-05-13T08:48:20.870Z,17.09
2023-05-13T08:50:48.063Z,16.98
2023-05-13T08:53:17.015Z,17.24
2023-05-13T08:55:43.696Z,17.11
2023-05-13T08:58:10.429Z,16.85
2023-05-13T09:00:37.353Z,16.64
2023-05-13T09:03:04.298Z,16.47
2023-05-13T09:05:32.049Z,16.72
2023-05-13T09:07:59.097Z,16.91
2023-05-13T09:10:25.674Z,17.22
2023-05-13T09:12:54.275Z,17.41
2023-05-13T09:15:23.482Z,17.32
2023-05-13T09:17:52.943Z,17.58
2023-05-13T09:20:21.105Z,17.70
2023-05-13T09:22:54.282Z,17.97
2023-05-13T09:25:24.372Z,18.17
2023-05-13T09:27:59.012Z,17.74
2023-05-13T09:30:27.240Z,17.65
2023-05-13T09:33:10.222Z,17.55
2023-05-13T09:35:42.337Z,17.31
2023-05-13T09:38:39.150Z,17.44
2023-05-13T09:41:05.862Z,17.57
2023-05-13T09:43:33.341Z,17.36
2023-05-13T09:46:04.634Z,17.46
2023-05-13T09:48:34.839Z,17.34
2023-05-13T09:51:01.606Z,17.40
2023-05-13T09:53:28.711Z,17.40
2023-05-13T09:55:57.766Z,17.49
2023-05-13T09:58:27.962Z,17.27
2023-05-13T10:00:55.114Z,17.23
2023-05-13T10:03:21.813Z,17.60
2023-05-13T10:05:48.994Z,17.53
2023-05-13T10:08:15.795Z,17.75
2023-05-13T10:10:45.894Z,18.21
2023-05-13T10:13:13.822Z,18.25
2023-05-13T10:15:49.974Z,18.24
2023-05-13T10:18:17.657Z,17.88
2023-05-13T10:20:44.728Z,17.50
2023-05-13T10:23:12.554Z,17.14
2023-05-13T10:25:39.394Z,17.07
2023-05-13T10:28:06.810Z,16.87
2023-05-13T10:30:35.891Z,16.92
2023-05-13T10:33:03.373Z,17.47
2023-05-13T10:35:34.602Z,18.11
2023-05-13T10:38:06.761Z,18.31
2023-05-13T10:40:48.308Z,18.58
2023-05-13T10:43:22.090Z,18.29
2023-05-13T10:46:16.564Z,18.09
2023-05-13T10:48:47.727Z,18.01
2023-05-13T10:51:15.930Z,18.19
2023-05-13T10:53:49.914Z,17.49
2023-05-13T10:56:19.741Z,17.85
2023-05-13T10:59:06.656Z,17.59
2023-05-13T11:01:39.279Z,17.17
2023-05-13T11:04:06.173Z,17.35
2023-05-13T11:06:41.177Z,17.40
2023-05-13T11:09:29.040Z,17.70
2023-05-13T11:11:58.220Z,18.32
2023-05-13T11:14:26.759Z,18.70
2023-05-13T11:17:02.446Z,19.06
2023-05-13T11:19:37.406Z,19.48
2023-05-13T11:22:26.404Z,19.81
2023-05-13T11:25:05.441Z,20.18
2023-05-13T11:27:40.035Z,20.39
2023-05-13T11:30:08.388Z,20.68
2023-05-13T11:32:56.184Z,20.79
2023-05-13T11:35:24.637Z,20.80
2023-05-13T11:37:51.353Z,19.75
2023-05-13T11:40:30.639Z,19.86
2023-05-13T11:42:58.232Z,20.23
2023-05-13T11:45:25.773Z,20.67
2023-05-13T11:47:53.534Z,20.54
2023-05-13T11:50:20.644Z,20.98
2023-05-13T11:52:54.980Z,20.62
2023-05-13T11:55:29.101Z,19.60
2023-05-13T11:57:56.513Z,19.31
2023-05-13T12:00:27.375Z,18.98
2023-05-13T12:02:54.697Z,19.68
2023-05-13T12:05:22.157Z,20.17
2023-05-13T12:07:49.351Z,20.72
2023-05-13T12:10:16.088Z,21.42
2023-05-13T12:12:44.309Z,21.76
2023-05-13T12:15:11.999Z,21.83
2023-05-13T12:17:39.172Z,21.61
2023-05-13T12:20:14.332Z,22.29
2023-05-13T12:22:44.260Z,21.90
2023-05-13T12:25:38.982Z,22.21
2023-05-13T12:28:18.962Z,22.64
2023-05-13T12:31:05.872Z,22.59
2023-05-13T12:33:40.646Z,22.84
2023-05-13T12:36:33.710Z,22.49
2023-05-13T12:39:10.899Z,22.14
2023-05-13T12:41:39.540Z,21.72
2023-05-13T12:44:09.978Z,21.15
2023-05-13T12:46:37.258Z,19.84
2023-05-13T12:49:05.305Z,19.56
2023-05-13T12:51:35.743Z,19.05
2023-05-13T12:54:02.509Z,18.88
2023-05-13T12:56:29.229Z,18.58
2023-05-13T12:58:56.290Z,18.38
2023-05-13T13:01:23.136Z,18.03
2023-05-13T13:03:50.069Z,17.79
2023-05-13T13:06:17.536Z,18.12
2023-05-13T13:08:44.175Z,18.40
2023-05-13T13:11:14.761Z,18.47
2023-05-13T13:13:41.744Z,18.85
2023-05-13T13:16:09.221Z,19.13
2023-05-13T13:18:36.137Z,19.12
2023-05-13T13:21:02.849Z,19.79
2023-05-13T13:23:29.676Z,20.02
2023-05-13T13:25:58.414Z,20.03
2023-05-13T13:28:28.775Z,20.54
2023-05-13T13:30:55.472Z,20.72
2023-05-13T13:33:22.428Z,21.01
2023-05-13T13:35:49.486Z,21.31
2023-05-13T13:38:16.096Z,21.13
2023-05-13T13:40:42.824Z,21.12
2023-05-13T13:43:09.561Z,20.82
2023-05-13T13:45:36.478Z,20.83
2023-05-13T13:48:03.384Z,21.06
2023-05-13T13:50:30.208Z,20.99
2023-05-13T13:52:56.855Z,20.60
2023-05-13T13:55:24.223Z,20.23
2023-05-13T13:57:51.896Z,19.22
2023-05-13T14:00:18.743Z,19.02
2023-05-13T14:02:45.642Z,18.91
2023-05-13T14:05:13.025Z,19.08
2023-05-13T14:07:39.980Z,19.10
2023-05-13T14:10:07.413Z,19.44
2023-05-13T14:12:35.820Z,19.65
2023-05-13T14:15:02.786Z,19.87
2023-05-13T14:17:29.466Z,20.16
2023-05-13T14:19:56.184Z,19.72
2023-05-13T14:22:23.675Z,19.69
2023-05-13T14:24:53.294Z,19.28
2023-05-13T14:27:20.878Z,19.46
2023-05-13T14:29:47.820Z,19.11
2023-05-13T14:32:14.590Z,19.13
2023-05-13T14:34:41.467Z,19.08
2023-05-13T14:37:08.358Z,19.16
2023-05-13T14:39:35.210Z,19.65
2023-05-13T14:42:02.039Z,20.25
2023-05-13T14:44:28.763Z,19.85
2023-05-13T14:46:56.045Z,19.45
2023-05-13T14:49:22.814Z,19.83
2023-05-13T14:51:49.491Z,20.28
2023-05-13T14:54:17.827Z,20.75
2023-05-13T14:56:45.349Z,21.02
2023-05-13T14:59:11.961Z,21.30
2023-05-13T15:01:38.807Z,21.63
2023-05-13T15:04:05.957Z,21.29
2023-05-13T15:06:33.208Z,21.02
2023-05-13T15:08:59.934Z,21.38
2023-05-13T15:11:28.321Z,20.90
2023-05-13T15:13:55.406Z,21.36
2023-05-13T15:16:22.342Z,22.21
2023-05-13T15:18:50.380Z,22.54
2023-05-13T15:21:17.512Z,22.88
2023-05-13T15:23:44.170Z,22.00
2023-05-13T15:26:10.924Z,21.64
2023-05-13T15:28:37.948Z,22.29
2023-05-13T15:31:05.465Z,21.92
2023-05-13T15:33:32.782Z,21.54
2023-05-13T15:36:00.055Z,19.92
2023-05-13T15:38:27.186Z,19.26
2023-05-13T15:40:54.215Z,19.03
2023-05-13T15:43:21.110Z,19.18
2023-05-13T15:45:48.266Z,19.66
2023-05-13T15:48:14.953Z,19.66
2023-05-13T15:50:41.802Z,19.15
2023-05-13T15:53:08.433Z,18.88
2023-05-13T15:55:36.935Z,18.90
2023-05-13T15:58:03.634Z,19.99
2023-05-13T16:00:31.229Z,22.21
2023-05-13T16:02:57.959Z,24.70
2023-05-13T16:05:25.911Z,26.89
2023-05-13T16:07:52.595Z,26.98
2023-05-13T16:10:19.407Z,26.64
2023-05-13T16:12:46.096Z,25.99
2023-05-13T16:15:12.823Z,26.17
2023-05-13T16:17:39.646Z,26.10
2023-05-13T16:20:07.456Z,26.26
2023-05-13T16:22:38.120Z,25.93
2023-05-13T16:25:09.879Z,28.81
2023-05-13T16:27:37.500Z,29.05
2023-05-13T16:30:06.169Z,28.33
2023-05-13T16:32:33.554Z,28.20
2023-05-13T16:35:01.566Z,27.55
2023-05-13T16:37:28.865Z,28.62
2023-05-13T16:39:55.752Z,28.82
2023-05-13T16:42:22.915Z,27.41
2023-05-13T16:44:49.543Z,27.87
2023-05-13T16:47:16.280Z,28.94
2023-05-13T16:49:42.970Z,28.07
2023-05-13T16:52:09.774Z,27.63
2023-05-13T16:54:36.551Z,27.49
2023-05-13T16:57:03.347Z,27.98
2023-05-13T16:59:30.026Z,27.99
2023-05-13T17:01:56.741Z,27.79
2023-05-13T17:04:23.453Z,27.59
2023-05-13T17:06:50.917Z,28.14
2023-05-13T17:09:17.557Z,29.30
2023-05-13T17:11:44.288Z,28.56
2023-05-13T17:14:10.956Z,28.94
2023-05-13T17:16:38.741Z,27.50
2023-05-13T17:19:05.498Z,26.48
2023-05-13T17:21:32.384Z,25.14
2023-05-13T17:23:59.525Z,25.81
2023-05-13T17:26:26.490Z,27.24
2023-05-13T17:28:53.368Z,28.63
2023-05-13T17:31:20.214Z,29.79
2023-05-13T17:33:46.919Z,29.90
2023-05-13T17:36:13.613Z,28.25
2023-05-13T17:38:40.210Z,27.65
2023-05-13T17:41:06.989Z,26.28
2023-05-13T17:43:33.647Z,25.14
2023-05-13T17:46:00.656Z,23.12
2023-05-13T17:48:27.411Z,22.74
2023-05-13T17:50:54.330Z,21.78
2023-05-13T17:53:21.419Z,20.58
2023-05-13T17:55:48.707Z,19.92
2023-05-13T17:58:18.449Z,19.36
2023-05-13T18:00:45.151Z,19.07
2023-05-13T18:03:11.831Z,19.01
2023-05-13T18:05:38.666Z,18.77
2023-05-13T18:08:05.376Z,18.57
2023-05-13T18:10:32.107Z,18.38
2023-05-13T18:12:58.688Z,18.05
2023-05-13T18:15:25.362Z,17.92
2023-05-13T18:17:52.099Z,17.69
2023-05-13T18:20:19.113Z,17.57
2023-05-13T18:22:45.815Z,17.17
2023-05-13T18:25:12.578Z,16.91
2023-05-13T18:27:39.232Z,16.91
2023-05-13T18:30:07.218Z,16.74
2023-05-13T18:32:33.837Z,16.54
2023-05-13T18:35:00.691Z,16.26
2023-05-13T18:37:27.394Z,16.15
2023-05-13T18:39:54.173Z,15.95
2023-05-13T18:42:21.246Z,15.92
2023-05-13T18:44:48.029Z,15.78
2023-05-13T18:47:14.660Z,15.66
2023-05-13T18:49:41.467Z,15.51
2023-05-13T18:52:08.205Z,15.29
2023-05-13T18:54:35.410Z,15.03
2023-05-13T18:57:02.121Z,14.91
2023-05-13T18:59:28.808Z,14.69
2023-05-13T19:01:55.634Z,14.42
2023-05-13T19:04:22.647Z,14.22
2023-05-13T19:06:49.431Z,14.09
2023-05-13T19:09:17.087Z,13.98
2023-05-13T19:11:44.282Z,13.90
2023-05-13T19:14:11.017Z,13.76
2023-05-13T19:16:37.786Z,13.71
2023-05-13T19:19:04.688Z,13.59
2023-05-13T19:21:31.661Z,13.45
2023-05-13T19:23:58.801Z,13.36
2023-05-13T19:26:25.607Z,13.21
2023-05-13T19:28:52.474Z,13.15
2023-05-13T19:31:19.243Z,13.01
2023-05-13T19:33:46.443Z,12.92
2023-05-13T19:36:13.389Z,12.92
2023-05-13T19:38:39.974Z,12.88
2023-05-13T19:41:06.688Z,12.76
2023-05-13T19:43:33.334Z,12.67
2023-05-13T19:46:00.105Z,12.54
2023-05-13T19:48:28.388Z,12.50
2023-05-13T19:50:57.916Z,12.41
2023-05-13T19:53:24.592Z,12.34
2023-05-13T19:55:51.306Z,12.16
2023-05-13T19:58:18.026Z,12.07
2023-05-13T20:00:44.908Z,12.04
2023-05-13T20:03:11.620Z,11.80
2023-05-13T20:05:39.857Z,11.75
2023-05-13T20:08:06.645Z,11.58
2023-05-13T20:10:35.252Z,11.53
2023-05-13T20:13:03.618Z,11.44
2023-05-13T20:15:31.345Z,11.20
2023-05-13T20:17:58.026Z,11.13
2023-05-13T20:20:25.001Z,10.97
2023-05-13T20:22:51.896Z,10.92
2023-05-13T20:25:18.529Z,10.81
2023-05-13T20:27:45.424Z,10.69
2023-05-13T20:30:12.676Z,10.66
2023-05-13T20:32:39.491Z,10.62
2023-05-13T20:35:07.600Z,10.56
2023-05-13T20:37:34.780Z,10.49
2023-05-13T20:40:01.471Z,10.45
2023-05-13T20:42:28.186Z,10.40
2023-05-13T20:44:54.749Z,10.33
2023-05-13T20:47:21.688Z,10.26
2023-05-13T20:49:48.368Z,10.20
2023-05-13T20:52:15.079Z,10.06
2023-05-13T20:54:41.735Z,10.08
2023-05-13T20:57:08.412Z,9.97
2023-05-13T20:59:35.095Z,9.95
2023-05-13T21:02:01.891Z,9.95
2023-05-13T21:04:28.787Z,9.89
2023-05-13T21:06:55.603Z,9.79
2023-05-13T21:09:22.244Z,9.79
2023-05-13T21:11:49.030Z,9.70
2023-05-13T21:14:15.640Z,9.63
2023-05-13T21:16:42.665Z,9.51
2023-05-13T21:19:18.488Z,9.51
2023-05-13T21:21:45.225Z,9.45
2023-05-13T21:24:11.881Z,9.38
2023-05-13T21:26:38.504Z,9.33
2023-05-13T21:29:05.193Z,9.35
2023-05-13T21:31:31.954Z,9.32
2023-05-13T21:33:58.605Z,9.32
2023-05-13T21:36:25.631Z,9.22
2023-05-13T21:38:54.091Z,9.15
2023-05-13T21:41:21.083Z,9.03
2023-05-13T21:43:47.728Z,9.03
2023-05-13T21:46:14.448Z,9.02
2023-05-13T21:48:41.223Z,9.02
2023-05-13T21:51:07.907Z,9.03
2023-05-13T21:53:34.483Z,8.97
2023-05-13T21:56:01.273Z,8.89
2023-05-13T21:58:27.882Z,8.86
2023-05-13T22:00:54.546Z,8.87
2023-05-13T22:03:21.431Z,8.82
2023-05-13T22:05:48.204Z,8.80
2023-05-13T22:08:14.787Z,8.83
2023-05-13T22:10:41.704Z,8.79
2023-05-13T22:13:08.352Z,8.74
2023-05-13T22:15:35.060Z,8.66
2023-05-13T22:18:01.827Z,8.64
2023-05-13T22:20:28.598Z,8.51
2023-05-13T22:22:55.279Z,8.52
2023-05-13T22:25:22.004Z,8.47
2023-05-13T22:27:50.552Z,8.43
2023-05-13T22:30:17.402Z,8.40
2023-05-13T22:32:44.093Z,8.35
2023-05-13T22:35:11.030Z,8.33
2023-05-13T22:37:37.711Z,8.32
2023-05-13T22:40:05.056Z,8.28
2023-05-13T22:42:31.850Z,8.21
2023-05-13T22:44:58.561Z,8.17
2023-05-13T22:47:25.270Z,8.15
2023-05-13T22:49:51.993Z,8.11
2023-05-13T22:52:18.634Z,8.05
2023-05-13T22:54:45.356Z,7.99
2023-05-13T22:57:11.901Z,7.94
2023-05-13T22:59:38.786Z,7.90
2023-05-13T23:02:05.640Z,7.87
2023-05-13T23:04:32.447Z,7.82
2023-05-13T23:06:59.073Z,7.87
2023-05-13T23:09:25.705Z,7.82
2023-05-13T23:11:52.348Z,7.76
2023-05-13T23:14:19.022Z,7.74
2023-05-13T23:16:45.909Z,7.60
2023-05-13T23:19:12.975Z,7.69
2023-05-13T23:21:39.674Z,7.81
2023-05-13T23:24:06.479Z,7.78
2023-05-13T23:26:33.141Z,7.85
2023-05-13T23:28:59.787Z,7.79
2023-05-13T23:31:26.519Z,7.88
2023-05-13T23:33:53.287Z,7.93
2023-05-13T23:36:19.858Z,7.93
2023-05-13T23:38:46.551Z,7.83
2023-05-13T23:41:13.156Z,7.86
2023-05-13T23:43:39.878Z,7.90
2023-05-13T23:46:06.567Z,7.80
2023-05-13T23:48:33.358Z,7.76
2023-05-13T23:51:00.192Z,7.80
2023-05-13T23:53:27.023Z,7.77
2023-05-13T23:55:53.631Z,7.66
2023-05-13T23:58:20.520Z,7.65
